createdAt,value
2018-02-08T00:00:21.740Z,9.42
2018-02-08T00:02:50.283Z,9.74
2018-02-08T00:05:19.113Z,9.98
2018-02-08T00:07:47.668Z,10.28
2018-02-08T00:10:16.225Z,10.17
2018-02-08T00:12:45.884Z,10.20
2018-02-08T00:15:14.436Z,10.08
2018-02-08T00:17:43.025Z,10.00
2018-02-08T00:20:12.392Z,9.88
2018-02-08T00:22:46.628Z,9.70
2018-02-08T00:25:15.455Z,9.89
2018-02-08T00:27:43.995Z,9.96
2018-02-08T00:30:13.315Z,10.02
2018-02-08T00:32:42.052Z,10.19
2018-02-08T00:35:10.599Z,9.87
2018-02-08T00:37:39.144Z,9.80
2018-02-08T00:40:08.788Z,9.86
2018-02-08T00:42:37.335Z,9.73
2018-02-08T00:45:06.645Z,9.65
2018-02-08T00:47:35.472Z,9.39
2018-02-08T00:50:04.034Z,9.49
2018-02-08T00:52:32.573Z,9.23
2018-02-08T00:55:01.172Z,8.97
2018-02-08T00:57:30.484Z,8.96
2018-02-08T00:59:59.796Z,9.01
2018-02-08T01:02:28.402Z,8.68
2018-02-08T01:04:56.949Z,8.77
2018-02-08T01:07:25.684Z,8.74
2018-02-08T01:09:54.564Z,8.56
2018-02-08T01:12:23.261Z,8.66
2018-02-08T01:14:51.839Z,8.66
2018-02-08T01:17:20.839Z,8.56
2018-02-08T01:19:49.516Z,8.38
2018-02-08T01:22:18.166Z,8.27
2018-02-08T01:24:47.256Z,8.43
2018-02-08T01:27:16.704Z,8.56
2018-02-08T01:29:45.344Z,8.37
2018-02-08T01:32:14.998Z,8.27
2018-02-08T01:34:43.684Z,8.11
2018-02-08T01:37:12.322Z,8.45
2018-02-08T01:39:42.799Z,8.06
2018-02-08T01:42:11.375Z,8.20
2018-02-08T01:44:40.061Z,8.11
2018-02-08T01:47:09.263Z,8.31
2018-02-08T01:49:46.860Z,8.35
2018-02-08T01:52:15.739Z,8.58
2018-02-08T01:54:45.964Z,8.50
2018-02-08T01:57:14.508Z,8.35
2018-02-08T01:59:43.197Z,8.66
2018-02-08T02:02:11.744Z,8.57
2018-02-08T02:04:40.298Z,8.37
2018-02-08T02:07:09.658Z,8.72
2018-02-08T02:09:38.963Z,8.68
2018-02-08T02:12:08.267Z,9.49
2018-02-08T02:14:37.760Z,9.48
2018-02-08T02:17:07.072Z,9.58
2018-02-08T02:19:35.639Z,9.41
2018-02-08T02:22:05.001Z,9.87
2018-02-08T02:24:33.549Z,10.00
2018-02-08T02:27:02.088Z,9.92
2018-02-08T02:29:30.802Z,10.07
2018-02-08T02:31:59.365Z,10.13
2018-02-08T02:34:28.675Z,10.22
2018-02-08T02:36:58.324Z,10.43
2018-02-08T02:39:26.933Z,10.42
2018-02-08T02:41:55.479Z,10.43
2018-02-08T02:44:24.080Z,10.45
2018-02-08T02:46:52.627Z,10.67
2018-02-08T02:49:21.944Z,10.79
2018-02-08T02:51:50.530Z,10.71
2018-02-08T02:54:19.108Z,10.74
2018-02-08T02:56:47.652Z,10.66
2018-02-08T02:59:16.503Z,10.47
2018-02-08T03:01:45.044Z,10.22
2018-02-08T03:04:14.352Z,10.25
2018-02-08T03:06:43.971Z,10.20
2018-02-08T03:09:12.511Z,10.37
2018-02-08T03:11:41.066Z,10.20
2018-02-08T03:14:09.844Z,10.22
2018-02-08T03:16:38.388Z,9.96
2018-02-08T03:19:07.696Z,10.06
2018-02-08T03:21:37.052Z,10.28
2018-02-08T03:24:05.596Z,10.22
2018-02-08T03:26:34.139Z,10.19
2018-02-08T03:29:03.563Z,9.62
2018-02-08T03:31:32.130Z,9.54
2018-02-08T03:34:01.423Z,9.43
2018-02-08T03:36:30.159Z,9.08
2018-02-08T03:38:58.704Z,9.55
2018-02-08T03:41:28.012Z,9.77
2018-02-08T03:43:57.479Z,9.77
2018-02-08T03:46:26.024Z,9.75
2018-02-08T03:48:54.592Z,9.42
2018-02-08T03:51:23.418Z,8.98
2018-02-08T03:53:51.956Z,9.36
2018-02-08T03:56:20.500Z,9.30
2018-02-08T03:58:49.092Z,9.18
2018-02-08T04:01:17.640Z,9.09
2018-02-08T04:03:46.179Z,8.79
2018-02-08T04:06:15.534Z,8.96
2018-02-08T04:08:44.076Z,9.15
2018-02-08T04:11:12.621Z,8.79
2018-02-08T04:13:41.203Z,8.72
2018-02-08T04:16:09.740Z,8.70
2018-02-08T04:18:38.292Z,8.82
2018-02-08T04:21:07.760Z,8.72
2018-02-08T04:23:36.299Z,8.54
2018-02-08T04:26:04.839Z,8.89
2018-02-08T04:28:33.580Z,8.74
2018-02-08T04:31:02.128Z,8.98
2018-02-08T04:33:31.432Z,9.02
2018-02-08T04:36:00.897Z,9.22
2018-02-08T04:38:47.341Z,9.01
2018-02-08T04:41:34.612Z,8.85
2018-02-08T04:44:23.744Z,9.08
2018-02-08T04:50:08.240Z,9.14
2018-02-08T04:52:37.152Z,8.96
2018-02-08T04:55:05.698Z,8.98
2018-02-08T04:57:34.239Z,9.24
2018-02-08T05:00:03.048Z,9.25
2018-02-08T05:02:32.379Z,9.58
2018-02-08T05:05:00.928Z,9.74
2018-02-08T05:07:30.428Z,9.91
2018-02-08T05:09:59.747Z,9.81
2018-02-08T05:12:28.286Z,9.92
2018-02-08T05:14:56.984Z,9.73
2018-02-08T05:17:25.533Z,9.77
2018-02-08T05:19:54.081Z,9.92
2018-02-08T05:22:23.549Z,10.12
2018-02-08T05:24:52.091Z,9.84
2018-02-08T05:27:20.690Z,9.99
2018-02-08T05:29:49.684Z,9.88
2018-02-08T05:32:18.224Z,9.55
2018-02-08T05:34:47.532Z,9.77
2018-02-08T05:37:16.356Z,9.63
2018-02-08T05:39:44.903Z,9.41
2018-02-08T05:42:13.448Z,9.36
2018-02-08T05:44:42.144Z,9.05
2018-02-08T05:47:10.688Z,8.78
2018-02-08T05:49:39.248Z,9.19
2018-02-08T05:52:07.835Z,8.99
2018-02-08T05:54:36.412Z,9.14
2018-02-08T05:57:04.967Z,8.73
2018-02-08T05:59:33.750Z,8.62
2018-02-08T06:02:02.300Z,8.68
2018-02-08T06:04:30.850Z,9.09
2018-02-08T06:06:59.545Z,8.91
2018-02-08T06:09:28.088Z,9.30
2018-02-08T06:11:57.156Z,9.10
2018-02-08T06:14:26.948Z,9.21
2018-02-08T06:16:55.496Z,9.71
2018-02-08T06:19:24.044Z,9.23
2018-02-08T06:21:53.407Z,9.70
2018-02-08T06:24:21.961Z,9.65
2018-02-08T06:26:50.535Z,10.20
2018-02-08T06:29:19.137Z,10.06
2018-02-08T06:31:47.759Z,10.48
2018-02-08T06:34:17.079Z,10.02
2018-02-08T06:36:46.535Z,10.22
2018-02-08T06:39:15.085Z,10.14
2018-02-08T06:41:43.636Z,10.18
2018-02-08T06:44:13.160Z,10.61
2018-02-08T06:46:42.476Z,10.65
2018-02-08T06:49:11.031Z,10.27
2018-02-08T06:51:40.387Z,10.16
2018-02-08T06:54:08.937Z,10.53
2018-02-08T06:56:37.483Z,10.22
2018-02-08T06:59:07.983Z,10.82
2018-02-08T07:01:36.533Z,10.62
2018-02-08T07:04:05.080Z,10.41
2018-02-08T07:06:34.556Z,10.12
2018-02-08T07:09:05.174Z,10.94
2018-02-08T07:11:33.720Z,11.13
2018-02-08T07:14:03.253Z,11.24
2018-02-08T07:16:31.804Z,11.51
2018-02-08T07:19:01.116Z,11.42
2018-02-08T07:21:30.041Z,11.78
2018-02-08T07:23:58.587Z,11.22
2018-02-08T07:26:27.122Z,11.40
2018-02-08T07:28:56.008Z,11.12
2018-02-08T07:31:24.556Z,11.34
2018-02-08T07:33:53.109Z,11.30
2018-02-08T07:36:22.471Z,11.82
2018-02-08T07:38:51.022Z,12.03
2018-02-08T07:41:19.575Z,12.82
2018-02-08T07:43:49.048Z,12.65
2018-02-08T07:46:17.600Z,12.19
2018-02-08T07:48:46.148Z,12.86
2018-02-08T07:51:15.909Z,13.25
2018-02-08T07:53:44.456Z,13.27
2018-02-08T07:56:13.006Z,12.97
2018-02-08T07:58:45.735Z,12.97
2018-02-08T08:01:14.280Z,12.73
2018-02-08T08:03:43.608Z,12.68
2018-02-08T08:06:12.329Z,12.87
2018-02-08T08:08:40.884Z,13.49
2018-02-08T08:11:09.437Z,13.62
2018-02-08T08:13:38.905Z,13.67
2018-02-08T08:16:07.880Z,13.58
2018-02-08T08:18:36.436Z,13.67
2018-02-08T08:21:05.161Z,13.85
2018-02-08T08:23:33.717Z,14.21
2018-02-08T08:26:02.272Z,14.73
2018-02-08T08:28:31.676Z,14.80
2018-02-08T08:31:01.032Z,15.32
2018-02-08T08:33:29.576Z,14.59
2018-02-08T08:35:58.509Z,14.70
2018-02-08T08:38:27.065Z,14.81
2018-02-08T08:40:55.612Z,15.22
2018-02-08T08:43:24.977Z,15.37
2018-02-08T08:45:53.533Z,14.87
2018-02-08T08:48:22.076Z,15.14
2018-02-08T08:50:51.649Z,15.39
2018-02-08T08:53:20.205Z,15.97
2018-02-08T08:55:48.760Z,15.99
2018-02-08T08:58:18.418Z,15.59
2018-02-08T09:00:46.979Z,15.58
2018-02-08T09:03:15.531Z,15.89
2018-02-08T09:05:44.173Z,16.03
2018-02-08T09:08:12.729Z,15.72
2018-02-08T09:10:41.286Z,16.07
2018-02-08T09:13:10.137Z,15.98
2018-02-08T09:15:38.704Z,15.85
2018-02-08T09:18:07.252Z,16.68
2018-02-08T09:20:35.848Z,15.73
2018-02-08T09:23:04.405Z,16.25
2018-02-08T09:25:33.726Z,16.58
2018-02-08T09:28:02.648Z,16.41
2018-02-08T09:30:31.209Z,16.12
2018-02-08T09:32:59.764Z,16.81
2018-02-08T09:35:28.701Z,17.06
2018-02-08T09:37:57.250Z,17.63
2018-02-08T09:40:25.803Z,17.74
2018-02-08T09:42:55.280Z,17.73
2018-02-08T09:45:23.836Z,17.97
2018-02-08T09:47:52.393Z,17.83
2018-02-08T09:50:21.946Z,18.68
2018-02-08T09:52:50.504Z,18.14
2018-02-08T09:55:19.060Z,18.28
2018-02-08T09:57:48.432Z,18.18
2018-02-08T10:00:16.993Z,18.15
2018-02-08T10:02:45.550Z,18.61
2018-02-08T10:05:14.473Z,18.65
2018-02-08T10:07:43.784Z,17.23
2018-02-08T10:10:12.336Z,17.56
2018-02-08T10:12:41.243Z,18.18
2018-02-08T10:15:09.793Z,18.84
2018-02-08T10:17:39.132Z,18.13
2018-02-08T10:20:08.129Z,17.59
2018-02-08T10:22:36.785Z,18.77
2018-02-08T10:25:05.335Z,19.61
2018-02-08T10:27:34.748Z,19.73
2018-02-08T10:30:04.101Z,19.72
2018-02-08T10:32:32.651Z,19.64
2018-02-08T10:35:01.263Z,20.95
2018-02-08T10:37:29.850Z,19.85
2018-02-08T10:39:58.403Z,19.59
2018-02-08T10:42:27.290Z,20.15
2018-02-08T10:44:55.843Z,19.57
2018-02-08T10:47:25.166Z,19.71
2018-02-08T10:49:53.997Z,20.02
2018-02-08T10:52:22.551Z,20.00
2018-02-08T10:54:51.157Z,20.18
2018-02-08T10:57:19.951Z,20.11
2018-02-08T10:59:48.505Z,20.80
2018-02-08T11:02:17.064Z,21.27
2018-02-08T11:04:45.815Z,20.96
2018-02-08T11:07:14.373Z,21.10
2018-02-08T11:09:42.928Z,21.51
2018-02-08T11:12:11.536Z,22.03
2018-02-08T11:14:40.083Z,21.31
2018-02-08T11:17:09.401Z,21.56
2018-02-08T11:19:38.023Z,20.94
2018-02-08T11:22:06.583Z,21.33
2018-02-08T11:24:35.136Z,20.98
2018-02-08T11:27:04.694Z,21.28
2018-02-08T11:29:33.244Z,21.88
2018-02-08T11:32:01.800Z,22.42
2018-02-08T11:34:31.168Z,22.52
2018-02-08T11:36:59.703Z,22.50
2018-02-08T11:39:28.300Z,21.54
2018-02-08T11:41:57.009Z,22.09
2018-02-08T11:44:25.561Z,22.42
2018-02-08T11:46:54.112Z,22.81
2018-02-08T11:49:23.681Z,21.81
2018-02-08T11:51:52.243Z,22.90
2018-02-08T11:54:20.836Z,22.23
2018-02-08T11:56:50.304Z,21.79
2018-02-08T11:59:18.841Z,22.43
2018-02-08T12:01:47.403Z,22.52
2018-02-08T12:04:16.209Z,22.78
2018-02-08T12:06:44.760Z,23.21
2018-02-08T12:09:13.401Z,22.54
2018-02-08T12:11:42.775Z,22.08
2018-02-08T12:14:12.108Z,21.60
2018-02-08T12:16:40.673Z,21.76
2018-02-08T12:19:10.042Z,21.90
2018-02-08T12:21:38.609Z,23.12
2018-02-08T12:24:07.160Z,22.00
2018-02-08T12:26:36.725Z,22.64
2018-02-08T12:29:05.293Z,22.52
2018-02-08T12:31:33.857Z,21.82
2018-02-08T12:34:02.469Z,22.76
2018-02-08T12:36:31.031Z,23.05
2018-02-08T12:39:00.396Z,22.47
2018-02-08T12:41:29.872Z,22.77
2018-02-08T12:43:58.429Z,22.39
2018-02-08T12:46:26.988Z,22.39
2018-02-08T12:48:55.704Z,23.03
2018-02-08T12:51:24.273Z,22.72
2018-02-08T12:53:53.626Z,23.03
2018-02-08T12:56:22.412Z,22.80
2018-02-08T12:58:50.984Z,23.28
2018-02-08T13:01:20.308Z,22.50
2018-02-08T13:03:48.915Z,22.36
2018-02-08T13:06:17.479Z,22.54
2018-02-08T13:08:46.033Z,23.38
2018-02-08T13:11:15.405Z,22.67
2018-02-08T13:13:43.964Z,22.82
2018-02-08T13:16:12.524Z,23.17
2018-02-08T13:18:42.012Z,21.98
2018-02-08T13:21:12.081Z,22.27
2018-02-08T13:23:40.665Z,21.96
2018-02-08T13:26:09.581Z,21.58
2018-02-08T13:28:38.140Z,21.33
2018-02-08T13:31:06.732Z,21.35
2018-02-08T13:33:35.380Z,21.47
2018-02-08T13:36:03.986Z,21.24
2018-02-08T13:38:32.540Z,21.59
2018-02-08T13:41:01.280Z,20.93
2018-02-08T13:43:29.840Z,20.42
2018-02-08T13:45:58.468Z,21.01
2018-02-08T13:48:27.927Z,20.92
2018-02-08T13:51:01.629Z,21.19
2018-02-08T13:56:36.808Z,20.99
2018-02-08T13:59:11.269Z,20.99
2018-02-08T14:01:43.223Z,20.72
2018-02-08T14:04:11.864Z,20.71
2018-02-08T14:06:40.445Z,20.49
2018-02-08T14:09:09.004Z,20.65
2018-02-08T14:11:37.624Z,20.49
2018-02-08T14:14:06.954Z,20.18
2018-02-08T14:16:35.519Z,19.85
2018-02-08T14:19:04.282Z,19.95
2018-02-08T14:21:32.845Z,19.86
2018-02-08T14:24:02.168Z,19.41
2018-02-08T14:26:31.104Z,19.38
2018-02-08T14:28:59.669Z,19.62
2018-02-08T14:31:28.236Z,19.10
2018-02-08T14:33:57.028Z,18.76
2018-02-08T14:36:26.348Z,18.94
2018-02-08T14:38:54.904Z,19.19
2018-02-08T14:41:23.607Z,19.06
2018-02-08T14:43:52.177Z,19.26
2018-02-08T14:46:20.749Z,19.42
2018-02-08T14:48:49.466Z,19.54
2018-02-08T14:51:18.028Z,19.40
2018-02-08T14:53:46.584Z,19.20
2018-02-08T14:56:15.375Z,19.17
2018-02-08T14:58:43.944Z,19.43
2018-02-08T15:01:13.264Z,19.04
2018-02-08T15:03:41.970Z,18.63
2018-02-08T15:06:11.300Z,18.56
2018-02-08T15:08:39.848Z,18.31
2018-02-08T15:11:09.320Z,18.15
2018-02-08T15:13:38.648Z,17.79
2018-02-08T15:16:07.196Z,17.83
2018-02-08T15:18:36.592Z,17.67
2018-02-08T15:21:05.929Z,17.98
2018-02-08T15:23:34.476Z,18.16
2018-02-08T15:26:03.111Z,18.16
2018-02-08T15:28:31.683Z,17.97
2018-02-08T15:31:00.240Z,17.73
2018-02-08T15:33:28.852Z,17.67
2018-02-08T15:35:57.423Z,17.49
2018-02-08T15:38:25.975Z,17.41
2018-02-08T15:40:54.836Z,17.43
2018-02-08T15:43:23.389Z,17.47
2018-02-08T15:45:51.972Z,17.16
2018-02-08T15:48:20.854Z,17.05
2018-02-08T15:50:49.417Z,17.18
2018-02-08T15:53:17.976Z,17.13
2018-02-08T15:55:46.592Z,17.00
2018-02-08T15:58:15.164Z,17.05
2018-02-08T16:00:43.748Z,16.80
2018-02-08T16:03:13.228Z,16.60
2018-02-08T16:05:42.568Z,16.42
2018-02-08T16:08:11.124Z,16.28
2018-02-08T16:10:39.880Z,16.12
2018-02-08T16:13:08.500Z,15.87
2018-02-08T16:15:37.817Z,15.64
2018-02-08T16:18:06.536Z,15.51
2018-02-08T16:20:35.108Z,15.49
2018-02-08T16:23:04.433Z,15.47
2018-02-08T16:25:33.163Z,15.32
2018-02-08T16:28:01.722Z,15.12
2018-02-08T16:30:30.284Z,14.97
2018-02-08T16:32:59.666Z,14.73
2018-02-08T16:35:29.020Z,14.45
2018-02-08T16:37:57.649Z,14.61
2018-02-08T16:40:26.493Z,14.96
2018-02-08T16:42:55.066Z,14.99
2018-02-08T16:45:23.634Z,15.07
2018-02-08T16:47:52.360Z,14.75
2018-02-08T16:50:22.457Z,15.08
2018-02-08T16:52:51.088Z,15.03
2018-02-08T16:55:19.809Z,14.85
2018-02-08T16:57:48.400Z,14.41
2018-02-08T17:00:17.031Z,14.50
2018-02-08T17:02:45.780Z,14.51
2018-02-08T17:05:14.351Z,14.35
2018-02-08T17:07:42.924Z,14.16
2018-02-08T17:10:12.489Z,13.98
2018-02-08T17:12:41.099Z,13.93
2018-02-08T17:15:09.667Z,14.01
2018-02-08T17:17:38.386Z,13.84
2018-02-08T17:20:06.962Z,13.67
2018-02-08T17:22:36.430Z,13.62
2018-02-08T17:25:05.483Z,13.70
2018-02-08T17:27:34.961Z,13.79
2018-02-08T17:30:04.378Z,13.95
2018-02-08T17:32:33.406Z,13.58
2018-02-08T17:35:01.996Z,13.89
2018-02-08T17:37:31.383Z,14.13
2018-02-08T17:40:00.016Z,14.09
2018-02-08T17:42:28.580Z,14.28
2018-02-08T17:44:57.912Z,14.45
2018-02-08T17:47:26.533Z,14.50
2018-02-08T17:49:55.382Z,14.34
2018-02-08T17:52:23.975Z,14.44
2018-02-08T17:54:57.721Z,14.27
2018-02-08T17:57:26.283Z,13.84
2018-02-08T17:59:54.892Z,13.93
2018-02-08T18:02:23.501Z,14.16
2018-02-08T18:04:52.841Z,14.25
2018-02-08T18:07:21.548Z,14.14
2018-02-08T18:09:50.120Z,13.98
2018-02-08T18:12:18.695Z,14.04
2018-02-08T18:14:47.308Z,13.86
2018-02-08T18:17:16.648Z,13.92
2018-02-08T18:19:45.214Z,14.00
2018-02-08T18:22:13.946Z,13.93
2018-02-08T18:24:42.531Z,13.91
2018-02-08T18:27:11.084Z,13.80
2018-02-08T18:29:39.775Z,13.87
2018-02-08T18:32:08.391Z,13.92
2018-02-08T18:34:36.952Z,13.92
2018-02-08T18:37:05.852Z,13.97
2018-02-08T18:39:34.408Z,13.80
2018-02-08T18:42:02.977Z,13.67
2018-02-08T18:44:32.029Z,13.45
2018-02-08T18:47:01.351Z,13.48
2018-02-08T18:49:30.929Z,13.41
2018-02-08T18:51:59.638Z,13.32
2018-02-08T18:54:29.249Z,13.19
2018-02-08T18:56:58.648Z,12.68
2018-02-08T18:59:28.239Z,12.42
2018-02-08T19:01:56.807Z,12.26
2018-02-08T19:04:25.373Z,12.15
2018-02-08T19:06:54.124Z,11.88
2018-02-08T19:09:23.450Z,11.76
2018-02-08T19:11:52.934Z,11.84
2018-02-08T19:14:21.771Z,11.83
2018-02-08T19:16:50.356Z,12.03
2018-02-08T19:19:18.929Z,12.08
2018-02-08T19:21:47.595Z,12.01
2018-02-08T19:24:16.153Z,12.07
2018-02-08T19:26:44.713Z,11.49
2018-02-08T19:29:14.277Z,11.60
2018-02-08T19:31:43.608Z,11.78
2018-02-08T19:34:12.168Z,11.63
2018-02-08T19:36:41.723Z,11.67
2018-02-08T19:39:10.651Z,11.55
2018-02-08T19:41:39.980Z,11.39
2018-02-08T19:44:08.600Z,11.36
2018-02-08T19:46:37.925Z,11.25
2018-02-08T19:49:06.609Z,11.25
2018-02-08T19:51:35.487Z,11.20
2018-02-08T19:54:04.049Z,11.08
2018-02-08T19:56:32.634Z,11.15
2018-02-08T19:59:01.246Z,10.99
2018-02-08T20:01:29.814Z,11.03
2018-02-08T20:03:58.374Z,11.15
2018-02-08T20:06:27.121Z,11.06
2018-02-08T20:08:56.513Z,11.08
2018-02-08T20:11:25.079Z,11.23
2018-02-08T20:13:54.062Z,11.25
2018-02-08T20:16:22.692Z,11.41
2018-02-08T20:18:52.008Z,11.19
2018-02-08T20:21:20.901Z,11.24
2018-02-08T20:23:50.236Z,11.16
2018-02-08T20:26:18.789Z,11.06
2018-02-08T20:28:47.400Z,11.15
2018-02-08T20:31:15.988Z,11.01
2018-02-08T20:33:44.568Z,11.16
2018-02-08T20:36:13.569Z,11.19
2018-02-08T20:38:42.137Z,11.44
2018-02-08T20:41:10.719Z,11.45
2018-02-08T20:43:39.497Z,11.39
2018-02-08T20:46:08.057Z,11.10
2018-02-08T20:48:36.637Z,11.08
2018-02-08T20:51:06.150Z,11.13
2018-02-08T20:53:34.708Z,11.14
2018-02-08T20:56:04.037Z,11.17
2018-02-08T20:58:32.857Z,11.09
2018-02-08T21:01:01.417Z,11.23
2018-02-08T21:03:29.974Z,11.21
2018-02-08T21:05:59.370Z,11.51
2018-02-08T21:08:28.685Z,11.80
2018-02-08T21:10:58.004Z,11.73
2018-02-08T21:13:26.659Z,11.67
2018-02-08T21:15:55.984Z,12.06
2018-02-08T21:18:24.540Z,11.98
2018-02-08T21:20:54.318Z,12.00
2018-02-08T21:23:22.877Z,11.78
2018-02-08T21:25:51.442Z,11.52
2018-02-08T21:28:20.061Z,11.74
2018-02-08T21:30:48.608Z,11.57
2018-02-08T21:33:17.170Z,11.47
2018-02-08T21:35:46.537Z,11.19
2018-02-08T21:38:15.100Z,11.22
2018-02-08T21:40:43.670Z,11.37
2018-02-08T21:43:12.583Z,11.58
2018-02-08T21:45:41.140Z,11.63
2018-02-08T21:48:09.711Z,11.52
2018-02-08T21:50:39.111Z,11.62
2018-02-08T21:53:07.669Z,11.54
2018-02-08T21:55:36.226Z,11.50
2018-02-08T21:58:04.930Z,11.53
2018-02-08T22:00:33.496Z,11.36
2018-02-08T22:03:02.073Z,11.54
2018-02-08T22:05:30.865Z,11.89
2018-02-08T22:07:59.425Z,11.99
2018-02-08T22:10:27.985Z,11.93
2018-02-08T22:12:56.742Z,12.02
2018-02-08T22:15:25.303Z,12.16
2018-02-08T22:17:53.869Z,12.21
2018-02-08T22:20:22.572Z,12.40
2018-02-08T22:22:51.131Z,12.26
2018-02-08T22:25:19.689Z,12.22
2018-02-08T22:27:49.444Z,12.32
2018-02-08T22:30:18.012Z,12.35
2018-02-08T22:32:46.576Z,12.19
2018-02-08T22:35:15.202Z,12.22
2018-02-08T22:37:43.776Z,12.19
2018-02-08T22:40:12.337Z,11.92
2018-02-08T22:42:41.080Z,11.73
2018-02-08T22:45:09.665Z,11.59
2018-02-08T22:47:38.996Z,11.50
2018-02-08T22:50:07.827Z,11.60
2018-02-08T22:52:36.800Z,11.89
2018-02-08T22:55:05.346Z,11.86
2018-02-08T22:57:34.819Z,11.89
2018-02-08T23:00:03.440Z,11.90
2018-02-08T23:02:32.755Z,11.80
2018-02-08T23:05:01.569Z,11.73
2018-02-08T23:07:30.130Z,11.87
2018-02-08T23:09:58.698Z,11.72
2018-02-08T23:12:27.309Z,11.63
2018-02-08T23:14:55.936Z,11.67
2018-02-08T23:17:24.515Z,11.16
2018-02-08T23:19:55.017Z,11.01
2018-02-08T23:22:23.568Z,11.02
2018-02-08T23:24:52.132Z,11.17
2018-02-08T23:27:21.504Z,11.06
2018-02-08T23:29:50.071Z,11.03
2018-02-08T23:32:18.713Z,11.12
2018-02-08T23:34:47.540Z,11.16
2018-02-08T23:37:16.091Z,11.04
2018-02-08T23:39:44.653Z,10.96
2018-02-08T23:42:14.020Z,11.17
2018-02-08T23:44:42.616Z,11.37
2018-02-08T23:47:12.684Z,11.45
2018-02-08T23:49:41.424Z,11.47
2018-02-08T23:52:09.984Z,11.32
2018-02-08T23:54:38.580Z,11.19
2018-02-08T23:57:07.282Z,11.48
2018-02-08T23:59:35.832Z,11.70
